createdAt,value
2023-04-18T00:03:41.812Z,46.28
2023-04-18T00:06:10.475Z,46.23
2023-04-18T00:08:39.095Z,46.41
2023-04-18T00:11:08.448Z,46.23
2023-04-18T00:13:40.884Z,46.59
2023-04-18T00:16:09.387Z,46.45
2023-04-18T00:18:37.479Z,46.52
2023-04-18T00:21:07.191Z,46.38
2023-04-18T00:23:36.226Z,46.52
2023-04-18T00:26:04.437Z,46.67
2023-04-18T00:28:32.654Z,46.46
2023-04-18T00:31:01.436Z,46.43
2023-04-18T00:33:29.704Z,46.64
2023-04-18T00:35:57.826Z,46.42
2023-04-18T00:38:26.062Z,46.45
2023-04-18T00:40:54.290Z,46.46
2023-04-18T00:43:24.243Z,46.54
2023-04-18T00:45:52.605Z,46.58
2023-04-18T00:48:21.077Z,46.49
2023-04-18T00:50:49.290Z,46.72
2023-04-18T00:53:17.772Z,46.56
2023-04-18T00:55:46.115Z,46.52
2023-04-18T00:58:14.597Z,46.59
2023-04-18T01:00:43.352Z,46.55
2023-04-18T01:03:11.735Z,46.66
2023-04-18T01:05:40.629Z,46.64
2023-04-18T01:08:08.932Z,46.49
2023-04-18T01:10:37.489Z,46.56
2023-04-18T01:13:16.813Z,46.54
2023-04-18T01:15:50.667Z,46.45
2023-04-18T01:18:19.621Z,46.59
2023-04-18T01:20:49.938Z,46.65
2023-04-18T01:23:19.433Z,46.79
2023-04-18T01:25:48.618Z,46.79
2023-04-18T01:28:17.361Z,46.83
2023-04-18T01:30:45.775Z,46.80
2023-04-18T01:33:13.921Z,46.77
2023-04-18T01:35:42.069Z,46.70
2023-04-18T01:38:10.465Z,46.86
2023-04-18T01:40:38.609Z,46.73
2023-04-18T01:43:07.194Z,46.81
2023-04-18T01:45:35.626Z,46.75
2023-04-18T01:48:04.384Z,46.74
2023-04-18T01:50:32.780Z,46.66
2023-04-18T01:53:02.856Z,46.67
2023-04-18T01:55:31.018Z,46.83
2023-04-18T01:57:59.105Z,46.69
2023-04-18T02:00:27.854Z,46.76
2023-04-18T02:02:59.226Z,46.78
2023-04-18T02:05:27.940Z,46.64
2023-04-18T02:07:56.149Z,46.70
2023-04-18T02:10:24.320Z,46.58
2023-04-18T02:12:52.508Z,46.66
2023-04-18T02:15:20.824Z,46.74
2023-04-18T02:17:49.684Z,46.53
2023-04-18T02:20:18.164Z,46.54
2023-04-18T02:22:47.525Z,46.62
2023-04-18T02:25:15.664Z,46.79
2023-04-18T02:27:43.873Z,46.62
2023-04-18T02:30:12.221Z,46.65
2023-04-18T02:32:40.654Z,46.54
2023-04-18T02:35:09.434Z,46.52
2023-04-18T02:37:37.549Z,46.60
2023-04-18T02:40:06.590Z,46.64
2023-04-18T02:42:34.741Z,46.63
2023-04-18T02:45:03.754Z,46.62
2023-04-18T02:47:35.420Z,46.65
2023-04-18T02:50:12.229Z,46.60
2023-04-18T02:52:40.434Z,46.55
2023-04-18T02:55:09.007Z,46.50
2023-04-18T02:57:37.217Z,46.54
2023-04-18T03:00:05.997Z,46.46
2023-04-18T03:02:34.418Z,46.47
2023-04-18T03:05:03.825Z,46.64
2023-04-18T03:07:31.984Z,46.54
2023-04-18T03:10:00.183Z,46.54
2023-04-18T03:12:28.426Z,46.54
2023-04-18T03:14:56.700Z,46.61
2023-04-18T03:17:25.416Z,46.54
2023-04-18T03:19:53.858Z,46.63
2023-04-18T03:22:21.966Z,46.64
2023-04-18T03:24:52.224Z,46.71
2023-04-18T03:27:20.747Z,46.68
2023-04-18T03:29:48.904Z,46.61
2023-04-18T03:32:17.097Z,46.60
2023-04-18T03:34:45.940Z,46.63
2023-04-18T03:37:14.009Z,46.70
2023-04-18T03:39:42.255Z,46.69
2023-04-18T03:42:10.610Z,46.80
2023-04-18T03:44:38.842Z,46.69
2023-04-18T03:47:06.991Z,46.74
2023-04-18T03:49:35.720Z,46.73
2023-04-18T03:52:04.239Z,46.75
2023-04-18T03:54:32.550Z,46.70
2023-04-18T03:57:00.888Z,46.68
2023-04-18T03:59:30.082Z,46.60
2023-04-18T04:01:59.023Z,46.57
2023-04-18T04:04:29.237Z,46.63
2023-04-18T04:06:57.489Z,46.44
2023-04-18T04:09:25.775Z,46.43
2023-04-18T04:11:53.995Z,46.27
2023-04-18T04:14:22.130Z,46.41
2023-04-18T04:16:51.842Z,46.36
2023-04-18T04:19:20.102Z,46.31
2023-04-18T04:21:49.393Z,46.32
2023-04-18T04:24:17.921Z,46.27
2023-04-18T04:26:47.071Z,46.38
2023-04-18T04:29:15.316Z,46.42
2023-04-18T04:31:43.586Z,46.43
2023-04-18T04:34:12.374Z,46.33
2023-04-18T04:36:40.801Z,46.45
2023-04-18T04:39:09.006Z,46.49
2023-04-18T04:41:39.694Z,46.51
2023-04-18T04:44:07.881Z,46.40
2023-04-18T04:46:36.323Z,46.41
2023-04-18T04:49:05.133Z,46.53
2023-04-18T04:51:33.350Z,46.55
2023-04-18T04:54:01.495Z,46.52
2023-04-18T04:56:29.754Z,46.46
2023-04-18T04:58:58.003Z,46.50
2023-04-18T05:01:26.419Z,46.43
2023-04-18T05:03:54.962Z,46.56
2023-04-18T05:06:24.798Z,46.66
2023-04-18T05:08:53.107Z,46.50
2023-04-18T05:11:21.322Z,46.43
2023-04-18T05:13:49.400Z,46.46
2023-04-18T05:16:18.328Z,46.55
2023-04-18T05:18:46.567Z,46.56
2023-04-18T05:21:14.762Z,46.47
2023-04-18T05:23:43.160Z,46.48
2023-04-18T05:26:11.575Z,46.62
2023-04-18T05:28:39.817Z,46.56
2023-04-18T05:31:08.541Z,46.64
2023-04-18T05:33:37.225Z,46.60
2023-04-18T05:36:08.889Z,46.75
2023-04-18T05:38:37.261Z,46.66
2023-04-18T05:41:05.567Z,46.64
2023-04-18T05:43:34.013Z,46.77
2023-04-18T05:46:02.733Z,46.74
2023-04-18T05:48:31.829Z,46.46
2023-04-18T05:51:00.209Z,46.71
2023-04-18T05:53:28.402Z,46.58
2023-04-18T05:55:57.757Z,46.60
2023-04-18T05:58:29.430Z,46.71
2023-04-18T06:00:58.367Z,46.91
2023-04-18T06:03:26.682Z,46.76
2023-04-18T06:05:55.933Z,46.97
2023-04-18T06:08:24.566Z,46.84
2023-04-18T06:10:52.704Z,46.99
2023-04-18T06:13:20.897Z,47.06
2023-04-18T06:15:50.062Z,47.05
2023-04-18T06:18:18.774Z,47.08
2023-04-18T06:20:47.423Z,46.97
2023-04-18T06:23:15.868Z,46.94
2023-04-18T06:25:44.841Z,46.84
2023-04-18T06:28:15.376Z,46.77
2023-04-18T06:30:44.190Z,46.63
2023-04-18T06:33:12.610Z,46.26
2023-04-18T06:35:41.754Z,46.15
2023-04-18T06:38:11.704Z,46.04
2023-04-18T06:40:39.887Z,46.05
2023-04-18T06:43:08.178Z,46.07
2023-04-18T06:45:36.639Z,45.92
2023-04-18T06:48:05.309Z,45.81
2023-04-18T06:50:33.830Z,45.76
2023-04-18T06:53:02.154Z,45.68
2023-04-18T06:55:30.677Z,45.70
2023-04-18T06:58:00.384Z,45.62
2023-04-18T07:00:28.933Z,45.52
2023-04-18T07:02:57.448Z,45.08
2023-04-18T07:05:25.851Z,45.05
2023-04-18T07:07:54.221Z,45.19
2023-04-18T07:10:22.417Z,45.17
2023-04-18T07:12:50.840Z,44.79
2023-04-18T07:15:18.895Z,44.72
2023-04-18T07:17:47.161Z,44.53
2023-04-18T07:20:16.082Z,44.65
2023-04-18T07:22:44.317Z,44.34
2023-04-18T07:25:12.443Z,44.37
2023-04-18T07:27:41.378Z,44.36
2023-04-18T07:30:10.427Z,44.56
2023-04-18T07:32:38.599Z,44.53
2023-04-18T07:35:06.893Z,44.62
2023-04-18T07:37:35.850Z,44.67
2023-04-18T07:40:04.573Z,44.90
2023-04-18T07:42:35.747Z,45.43
2023-04-18T07:45:04.531Z,45.78
2023-04-18T07:47:33.452Z,45.78
2023-04-18T07:50:02.960Z,45.95
2023-04-18T07:52:31.158Z,46.02
2023-04-18T07:55:00.579Z,46.11
2023-04-18T07:57:28.817Z,45.91
2023-04-18T08:00:00.263Z,46.04
2023-04-18T08:02:28.784Z,46.13
2023-04-18T08:04:57.458Z,45.84
2023-04-18T08:07:26.313Z,45.76
2023-04-18T08:09:56.064Z,45.44
2023-04-18T08:12:24.277Z,44.87
2023-04-18T08:14:52.630Z,44.68
2023-04-18T08:17:23.021Z,44.81
2023-04-18T08:19:51.249Z,44.37
2023-04-18T08:22:19.593Z,44.79
2023-04-18T08:25:03.355Z,43.87
2023-04-18T08:27:36.511Z,43.87
2023-04-18T08:30:08.126Z,43.88
2023-04-18T08:32:39.036Z,44.56
2023-04-18T08:35:07.583Z,44.23
2023-04-18T08:37:39.445Z,43.57
2023-04-18T08:40:08.816Z,42.63
2023-04-18T08:42:37.203Z,42.48
2023-04-18T08:45:07.057Z,42.85
2023-04-18T08:47:36.697Z,42.37
2023-04-18T08:50:12.154Z,42.18
2023-04-18T08:52:46.145Z,42.25
2023-04-18T08:55:14.771Z,42.87
2023-04-18T08:57:44.979Z,43.00
2023-04-18T09:00:20.459Z,42.54
2023-04-18T09:02:49.251Z,42.83
2023-04-18T09:05:25.167Z,42.63
2023-04-18T09:07:55.921Z,42.59
2023-04-18T09:10:35.364Z,42.88
2023-04-18T09:13:04.281Z,42.68
2023-04-18T09:15:33.286Z,42.49
2023-04-18T09:18:01.949Z,42.74
2023-04-18T09:20:31.767Z,42.67
2023-04-18T09:23:02.328Z,42.89
2023-04-18T09:25:38.400Z,42.73
2023-04-18T09:28:30.731Z,41.57
2023-04-18T09:31:12.246Z,41.46
2023-04-18T09:33:53.193Z,41.44
2023-04-18T09:36:28.100Z,41.91
2023-04-18T09:39:03.591Z,41.86
2023-04-18T09:41:33.144Z,41.81
2023-04-18T09:44:13.934Z,41.45
2023-04-18T09:46:46.593Z,41.72
2023-04-18T09:49:18.722Z,41.71
2023-04-18T09:51:52.052Z,41.33
2023-04-18T09:54:24.352Z,41.56
2023-04-18T09:56:53.435Z,41.93
2023-04-18T10:00:08.869Z,41.17
2023-04-18T10:02:57.868Z,39.68
2023-04-18T10:05:32.157Z,40.08
2023-04-18T10:08:13.602Z,40.14
2023-04-18T10:10:42.341Z,40.37
2023-04-18T10:13:14.097Z,40.05
2023-04-18T10:15:44.476Z,40.17
2023-04-18T10:18:16.540Z,40.35
2023-04-18T10:20:47.254Z,40.35
2023-04-18T10:23:39.293Z,40.58
2023-04-18T10:26:09.913Z,41.48
2023-04-18T10:28:56.471Z,40.26
2023-04-18T10:31:28.205Z,40.36
2023-04-18T10:36:31.338Z,39.98
2023-04-18T10:39:19.877Z,39.71
2023-04-18T10:41:51.186Z,39.43
2023-04-18T10:44:22.342Z,40.00
2023-04-18T10:46:59.987Z,40.86
2023-04-18T10:49:32.613Z,40.62
2023-04-18T10:52:04.035Z,41.09
2023-04-18T10:54:48.051Z,41.07
2023-04-18T10:57:19.260Z,40.40
2023-04-18T10:59:53.865Z,40.70
2023-04-18T11:02:31.774Z,40.62
2023-04-18T11:05:03.534Z,40.94
2023-04-18T11:07:43.458Z,40.97
2023-04-18T11:10:13.417Z,41.43
2023-04-18T11:12:42.248Z,40.80
2023-04-18T11:15:20.398Z,40.40
2023-04-18T11:18:00.535Z,39.78
2023-04-18T11:20:37.489Z,38.95
2023-04-18T11:23:16.995Z,38.53
2023-04-18T11:25:45.603Z,38.60
2023-04-18T11:28:19.520Z,39.63
2023-04-18T11:30:49.194Z,40.31
2023-04-18T11:33:18.475Z,40.22
2023-04-18T11:35:47.082Z,41.02
2023-04-18T11:38:16.887Z,41.78
2023-04-18T11:40:49.808Z,40.83
2023-04-18T11:43:26.353Z,39.60
2023-04-18T11:45:56.594Z,39.64
2023-04-18T11:48:37.996Z,39.86
2023-04-18T11:51:08.672Z,39.42
2023-04-18T11:53:38.905Z,40.30
2023-04-18T11:56:08.074Z,40.36
2023-04-18T11:58:36.930Z,40.95
2023-04-18T12:01:20.251Z,41.52
2023-04-18T12:04:03.955Z,41.78
2023-04-18T12:06:53.995Z,42.19
2023-04-18T12:09:24.716Z,41.39
2023-04-18T12:12:02.207Z,41.07
2023-04-18T12:14:30.934Z,42.16
2023-04-18T12:17:03.155Z,42.84
2023-04-18T12:19:33.046Z,42.82
2023-04-18T12:22:03.424Z,43.13
2023-04-18T12:24:32.889Z,43.56
2023-04-18T12:27:02.287Z,43.70
2023-04-18T12:29:32.343Z,44.17
2023-04-18T12:32:01.868Z,44.33
2023-04-18T12:34:31.760Z,43.76
2023-04-18T12:37:00.894Z,43.46
2023-04-18T12:39:32.559Z,43.90
2023-04-18T12:42:00.792Z,43.76
2023-04-18T12:44:30.167Z,44.29
2023-04-18T12:47:00.078Z,43.56
2023-04-18T12:49:28.430Z,43.59
2023-04-18T12:51:56.706Z,43.78
2023-04-18T12:54:26.125Z,44.09
2023-04-18T12:56:55.057Z,44.05
2023-04-18T12:59:23.324Z,43.99
2023-04-18T13:01:52.667Z,44.18
2023-04-18T13:04:21.641Z,43.44
2023-04-18T13:06:50.644Z,43.35
2023-04-18T13:09:19.833Z,43.26
2023-04-18T13:11:49.684Z,43.35
2023-04-18T13:14:18.654Z,43.39
2023-04-18T13:16:46.966Z,43.82
2023-04-18T13:19:15.385Z,44.28
2023-04-18T13:21:44.583Z,43.82
2023-04-18T13:24:13.312Z,43.53
2023-04-18T13:26:42.170Z,43.27
2023-04-18T13:29:11.654Z,43.86
2023-04-18T13:31:40.223Z,43.93
2023-04-18T13:34:08.591Z,44.21
2023-04-18T13:36:37.006Z,44.67
2023-04-18T13:39:07.143Z,43.75
2023-04-18T13:41:36.595Z,43.37
2023-04-18T13:44:07.122Z,43.46
2023-04-18T13:46:38.434Z,43.60
2023-04-18T13:49:07.566Z,44.38
2023-04-18T13:51:37.202Z,44.68
2023-04-18T13:54:05.697Z,44.66
2023-04-18T13:56:34.709Z,45.11
2023-04-18T13:59:04.081Z,45.38
2023-04-18T14:01:33.236Z,45.65
2023-04-18T14:04:04.206Z,45.60
2023-04-18T14:06:32.701Z,46.05
2023-04-18T14:09:02.225Z,46.25
2023-04-18T14:11:31.955Z,45.95
2023-04-18T14:14:00.186Z,45.58
2023-04-18T14:16:30.555Z,45.21
2023-04-18T14:19:01.832Z,45.53
2023-04-18T14:21:30.436Z,45.92
2023-04-18T14:23:58.718Z,45.63
2023-04-18T14:26:28.064Z,45.51
2023-04-18T14:28:56.883Z,45.46
2023-04-18T14:31:25.090Z,45.56
2023-04-18T14:33:55.150Z,46.05
2023-04-18T14:36:25.499Z,45.73
2023-04-18T14:38:53.751Z,46.32
2023-04-18T14:41:21.941Z,46.38
2023-04-18T14:43:51.423Z,46.26
2023-04-18T14:46:21.457Z,45.88
2023-04-18T14:48:51.566Z,46.03
2023-04-18T14:51:20.423Z,46.52
2023-04-18T14:53:48.705Z,46.65
2023-04-18T14:56:17.721Z,46.55
2023-04-18T14:58:46.977Z,45.98
2023-04-18T15:01:15.520Z,45.79
2023-04-18T15:03:43.753Z,45.33
2023-04-18T15:06:12.135Z,45.49
2023-04-18T15:08:40.827Z,45.53
2023-04-18T15:11:10.346Z,45.75
2023-04-18T15:13:39.186Z,45.98
2023-04-18T15:16:08.463Z,45.87
2023-04-18T15:18:37.742Z,45.64
2023-04-18T15:21:07.035Z,45.74
2023-04-18T15:23:35.584Z,45.46
2023-04-18T15:26:04.946Z,45.05
2023-04-18T15:28:34.027Z,45.13
2023-04-18T15:31:03.225Z,45.45
2023-04-18T15:33:32.258Z,45.37
2023-04-18T15:36:01.702Z,45.18
2023-04-18T15:38:33.032Z,45.05
2023-04-18T15:41:01.716Z,45.07
2023-04-18T15:43:31.376Z,45.24
2023-04-18T15:46:00.064Z,45.59
2023-04-18T15:48:29.692Z,45.61
2023-04-18T15:50:57.812Z,45.70
2023-04-18T15:53:26.277Z,45.75
2023-04-18T15:55:54.710Z,45.99
2023-04-18T15:58:23.294Z,46.24
2023-04-18T16:00:53.487Z,46.41
2023-04-18T16:03:23.079Z,46.87
2023-04-18T16:05:51.907Z,47.20
2023-04-18T16:08:20.402Z,47.21
2023-04-18T16:10:48.545Z,47.06
2023-04-18T16:13:19.396Z,47.12
2023-04-18T16:15:47.583Z,47.32
2023-04-18T16:18:15.807Z,47.67
2023-04-18T16:20:44.011Z,47.81
2023-04-18T16:23:12.253Z,47.79
2023-04-18T16:25:41.209Z,47.79
2023-04-18T16:28:11.972Z,47.97
2023-04-18T16:30:40.365Z,48.03
2023-04-18T16:33:09.361Z,48.09
2023-04-18T16:35:38.234Z,48.28
2023-04-18T16:38:07.702Z,48.23
2023-04-18T16:40:36.148Z,48.25
2023-04-18T16:43:05.443Z,48.41
2023-04-18T16:45:35.094Z,48.67
2023-04-18T16:48:04.422Z,48.93
2023-04-18T16:50:32.704Z,49.15
2023-04-18T16:53:01.440Z,49.42
2023-04-18T16:55:30.045Z,49.79
2023-04-18T16:57:58.754Z,50.37
2023-04-18T17:00:28.176Z,50.86
2023-04-18T17:02:57.176Z,51.05
2023-04-18T17:05:25.572Z,50.99
2023-04-18T17:07:55.278Z,51.37
2023-04-18T17:10:24.586Z,51.73
2023-04-18T17:12:53.530Z,51.66
2023-04-18T17:15:23.509Z,51.73
2023-04-18T17:17:52.900Z,51.77
2023-04-18T17:20:21.219Z,51.74
2023-04-18T17:22:49.521Z,51.87
2023-04-18T17:25:18.441Z,51.94
2023-04-18T17:27:47.144Z,52.23
2023-04-18T17:30:15.478Z,52.31
2023-04-18T17:32:43.974Z,52.19
2023-04-18T17:35:13.601Z,52.01
2023-04-18T17:37:42.400Z,51.89
2023-04-18T17:40:11.260Z,51.93
2023-04-18T17:42:39.899Z,52.11
2023-04-18T17:45:10.347Z,52.19
2023-04-18T17:47:39.324Z,52.35
2023-04-18T17:50:08.442Z,52.74
2023-04-18T17:52:37.587Z,52.95
2023-04-18T17:55:06.705Z,53.24
2023-04-18T17:57:34.941Z,53.41
2023-04-18T18:00:03.161Z,53.49
2023-04-18T18:02:31.843Z,53.69
2023-04-18T18:05:01.325Z,53.92
2023-04-18T18:07:29.492Z,54.28
2023-04-18T18:09:58.682Z,54.30
2023-04-18T18:12:27.402Z,54.31
2023-04-18T18:14:55.672Z,54.67
2023-04-18T18:17:24.502Z,54.56
2023-04-18T18:19:53.063Z,54.67
2023-04-18T18:22:21.412Z,54.63
2023-04-18T18:24:51.379Z,54.82
2023-04-18T18:27:20.207Z,54.97
2023-04-18T18:29:48.876Z,54.88
2023-04-18T18:32:17.413Z,54.62
2023-04-18T18:34:45.725Z,54.51
2023-04-18T18:37:15.114Z,54.62
2023-04-18T18:39:43.743Z,54.68
2023-04-18T18:42:12.119Z,54.65
2023-04-18T18:44:40.385Z,54.83
2023-04-18T18:47:09.112Z,55.05
2023-04-18T18:49:37.778Z,55.05
2023-04-18T18:52:05.975Z,55.14
2023-04-18T18:54:34.386Z,55.13
2023-04-18T18:57:03.800Z,55.28
2023-04-18T18:59:31.999Z,55.35
2023-04-18T19:02:01.059Z,55.35
2023-04-18T19:04:30.199Z,55.35
2023-04-18T19:06:59.187Z,55.41
2023-04-18T19:09:28.964Z,55.42
2023-04-18T19:11:57.819Z,55.33
2023-04-18T19:14:27.214Z,55.06
2023-04-18T19:16:55.994Z,54.98
2023-04-18T19:19:25.029Z,54.96
2023-04-18T19:21:53.325Z,55.17
2023-04-18T19:24:21.871Z,55.31
2023-04-18T19:26:50.102Z,55.49
2023-04-18T19:29:18.311Z,55.26
2023-04-18T19:31:46.574Z,55.52
2023-04-18T19:34:14.993Z,55.63
2023-04-18T19:36:44.269Z,55.68
2023-04-18T19:39:13.077Z,55.93
2023-04-18T19:41:41.822Z,55.88
2023-04-18T19:44:10.179Z,55.59
2023-04-18T19:46:38.634Z,55.54
2023-04-18T19:49:07.574Z,55.57
2023-04-18T19:51:36.590Z,55.64
2023-04-18T19:54:05.016Z,55.74
2023-04-18T19:56:33.186Z,55.61
2023-04-18T19:59:01.939Z,55.86
2023-04-18T20:01:31.249Z,55.88
2023-04-18T20:03:59.800Z,56.10
2023-04-18T20:06:31.674Z,56.15
2023-04-18T20:09:00.994Z,56.40
2023-04-18T20:11:29.561Z,56.56
2023-04-18T20:13:58.313Z,56.49
2023-04-18T20:16:26.682Z,56.85
2023-04-18T20:18:56.786Z,56.94
2023-04-18T20:21:26.159Z,56.96
2023-04-18T20:23:54.382Z,57.18
2023-04-18T20:26:22.477Z,57.01
2023-04-18T20:28:51.113Z,57.27
2023-04-18T20:31:19.374Z,57.21
2023-04-18T20:33:48.130Z,57.38
2023-04-18T20:36:16.932Z,57.36
2023-04-18T20:38:45.654Z,57.40
2023-04-18T20:41:14.910Z,57.38
2023-04-18T20:43:43.073Z,57.65
2023-04-18T20:46:11.303Z,57.68
2023-04-18T20:48:41.353Z,57.89
2023-04-18T20:51:11.224Z,57.81
2023-04-18T20:53:39.526Z,57.71
2023-04-18T20:56:09.852Z,57.63
2023-04-18T20:58:38.118Z,57.69
2023-04-18T21:01:07.647Z,57.52
2023-04-18T21:03:36.640Z,57.59
2023-04-18T21:06:05.582Z,57.82
2023-04-18T21:08:34.007Z,58.01
2023-04-18T21:11:02.201Z,58.05
2023-04-18T21:13:32.469Z,57.93
2023-04-18T21:16:00.945Z,58.13
2023-04-18T21:18:29.500Z,58.12
2023-04-18T21:20:58.482Z,58.18
2023-04-18T21:23:26.760Z,58.13
2023-04-18T21:25:54.895Z,58.03
2023-04-18T21:28:24.055Z,57.95
2023-04-18T21:30:52.275Z,58.03
2023-04-18T21:33:20.369Z,58.09
2023-04-18T21:35:49.304Z,58.01
2023-04-18T21:38:17.480Z,58.03
2023-04-18T21:40:45.549Z,57.75
2023-04-18T21:43:14.064Z,57.44
2023-04-18T21:45:42.325Z,57.51
2023-04-18T21:48:10.984Z,57.44
2023-04-18T21:50:39.244Z,57.34
2023-04-18T21:53:07.622Z,57.02
2023-04-18T21:55:35.798Z,56.87
2023-04-18T21:58:04.284Z,56.80
2023-04-18T22:00:32.411Z,56.61
2023-04-18T22:03:00.866Z,56.55
2023-04-18T22:05:29.878Z,56.50
2023-04-18T22:07:58.810Z,56.39
2023-04-18T22:10:27.240Z,56.09
2023-04-18T22:12:55.543Z,55.94
2023-04-18T22:15:24.739Z,55.91
2023-04-18T22:17:53.250Z,55.87
2023-04-18T22:20:21.660Z,55.77
2023-04-18T22:22:50.436Z,55.92
2023-04-18T22:25:18.579Z,55.85
2023-04-18T22:27:46.868Z,55.73
2023-04-18T22:30:15.439Z,55.72
2023-04-18T22:32:43.823Z,55.72
2023-04-18T22:35:12.575Z,55.82
2023-04-18T22:37:40.618Z,55.46
2023-04-18T22:40:09.221Z,55.71
2023-04-18T22:42:38.704Z,55.79
2023-04-18T22:45:07.605Z,55.64
2023-04-18T22:47:35.947Z,55.79
2023-04-18T22:50:05.078Z,55.72
2023-04-18T22:52:34.752Z,55.75
2023-04-18T22:55:03.501Z,55.72
2023-04-18T22:57:33.190Z,55.74
2023-04-18T23:00:01.423Z,55.88
2023-04-18T23:02:30.478Z,55.89
2023-04-18T23:04:59.377Z,55.80
2023-04-18T23:07:27.840Z,55.78
2023-04-18T23:09:56.479Z,56.08
2023-04-18T23:12:25.047Z,55.63
2023-04-18T23:14:54.249Z,55.96
2023-04-18T23:17:22.596Z,56.04
2023-04-18T23:19:51.722Z,55.77
2023-04-18T23:22:20.400Z,55.89
2023-04-18T23:24:48.774Z,56.04
2023-04-18T23:27:17.072Z,56.31
2023-04-18T23:29:48.032Z,56.30
2023-04-18T23:32:16.358Z,56.55
2023-04-18T23:34:46.162Z,56.79
2023-04-18T23:37:14.744Z,56.86
2023-04-18T23:39:42.847Z,57.18
2023-04-18T23:42:11.839Z,57.67
2023-04-18T23:44:40.049Z,57.76
2023-04-18T23:47:08.794Z,57.84
2023-04-18T23:49:37.092Z,57.86
2023-04-18T23:52:05.343Z,58.10
2023-04-18T23:54:33.927Z,58.46
2023-04-18T23:57:02.225Z,58.46
2023-04-18T23:59:30.434Z,58.68
